createdAt,value
2018-06-28T00:00:56.796Z,0.00
2018-06-28T00:01:56.843Z,0.00
2018-06-28T00:02:56.904Z,0.00
2018-06-28T00:03:56.918Z,0.00
2018-06-28T00:04:56.971Z,0.00
2018-06-28T00:05:57.111Z,0.00
2018-06-28T00:06:57.058Z,0.00
2018-06-28T00:07:57.114Z,0.00
2018-06-28T00:08:57.306Z,0.00
2018-06-28T00:09:57.190Z,0.00
2018-06-28T00:10:57.431Z,0.00
2018-06-28T00:11:57.287Z,0.00
2018-06-28T00:12:57.335Z,0.00
2018-06-28T00:13:57.376Z,0.00
2018-06-28T00:14:57.422Z,0.00
2018-06-28T00:15:57.459Z,0.00
2018-06-28T00:16:57.600Z,0.00
2018-06-28T00:17:57.537Z,0.00
2018-06-28T00:18:57.593Z,0.00
2018-06-28T00:19:57.656Z,0.00
2018-06-28T00:20:57.688Z,0.00
2018-06-28T00:21:57.720Z,0.00
2018-06-28T00:22:57.766Z,0.00
2018-06-28T00:23:57.804Z,0.00
2018-06-28T00:24:57.855Z,0.00
2018-06-28T00:25:57.911Z,0.00
2018-06-28T00:26:58.062Z,0.00
2018-06-28T00:27:58.003Z,0.00
2018-06-28T00:28:58.037Z,0.00
2018-06-28T00:29:58.092Z,0.00
2018-06-28T00:30:58.120Z,0.00
2018-06-28T00:31:58.180Z,0.00
2018-06-28T00:32:58.215Z,0.00
2018-06-28T00:33:58.250Z,0.00
2018-06-28T00:34:58.313Z,0.00
2018-06-28T00:35:58.341Z,0.00
2018-06-28T00:36:58.499Z,0.00
2018-06-28T00:37:58.433Z,0.00
2018-06-28T00:38:58.479Z,0.00
2018-06-28T00:39:58.537Z,0.00
2018-06-28T00:40:58.571Z,0.00
2018-06-28T00:41:58.631Z,0.00
2018-06-28T00:42:58.767Z,0.00
2018-06-28T00:43:58.702Z,0.00
2018-06-28T00:44:58.762Z,0.00
2018-06-28T00:45:58.798Z,0.00
2018-06-28T00:46:58.852Z,0.00
2018-06-28T00:47:58.879Z,0.00
2018-06-28T00:48:58.938Z,0.00
2018-06-28T00:49:58.977Z,0.00
2018-06-28T00:50:59.025Z,0.00
2018-06-28T00:51:59.070Z,0.00
2018-06-28T00:52:59.203Z,0.00
2018-06-28T00:53:59.161Z,0.00
2018-06-28T00:54:59.193Z,0.00
2018-06-28T00:55:59.257Z,0.00
2018-06-28T00:56:59.299Z,0.00
2018-06-28T00:57:59.331Z,0.00
2018-06-28T00:58:59.584Z,0.00
2018-06-28T00:59:59.439Z,0.00
2018-06-28T01:00:59.456Z,0.00
2018-06-28T01:01:59.523Z,0.00
2018-06-28T01:02:59.560Z,0.00
2018-06-28T01:03:59.695Z,0.00
2018-06-28T01:04:59.637Z,0.00
2018-06-28T01:05:59.681Z,0.00
2018-06-28T01:06:59.759Z,0.00
2018-06-28T01:07:59.776Z,0.00
2018-06-28T01:08:59.824Z,0.00
2018-06-28T01:09:59.881Z,0.00
2018-06-28T01:11:00.034Z,0.00
2018-06-28T01:11:59.951Z,0.00
2018-06-28T01:12:59.995Z,0.00
2018-06-28T01:14:00.058Z,0.00
2018-06-28T01:15:00.102Z,0.00
2018-06-28T01:16:00.134Z,0.00
2018-06-28T01:17:00.297Z,0.00
2018-06-28T01:18:00.226Z,0.00
2018-06-28T01:19:00.280Z,0.00
2018-06-28T01:20:00.329Z,0.00
2018-06-28T01:21:00.361Z,0.00
2018-06-28T01:22:00.401Z,0.00
2018-06-28T01:23:00.445Z,0.00
2018-06-28T01:24:00.512Z,0.00
2018-06-28T01:25:00.555Z,0.00
2018-06-28T01:26:00.596Z,0.00
2018-06-28T01:27:00.725Z,0.00
2018-06-28T01:28:00.665Z,0.00
2018-06-28T01:29:00.728Z,0.00
2018-06-28T01:30:00.752Z,0.00
2018-06-28T01:31:00.804Z,0.00
2018-06-28T01:32:00.858Z,0.00
2018-06-28T01:33:01.003Z,0.00
2018-06-28T01:34:00.931Z,0.00
2018-06-28T01:35:00.996Z,0.00
2018-06-28T01:36:01.046Z,0.00
2018-06-28T01:37:01.067Z,0.00
2018-06-28T01:38:01.224Z,0.00
2018-06-28T01:39:01.170Z,0.00
2018-06-28T01:40:01.227Z,0.00
2018-06-28T01:41:01.262Z,0.00
2018-06-28T01:42:01.298Z,0.00
2018-06-28T01:43:01.332Z,0.00
2018-06-28T01:44:01.378Z,0.00
2018-06-28T01:45:01.522Z,0.00
2018-06-28T01:46:01.487Z,0.00
2018-06-28T01:47:01.531Z,0.00
2018-06-28T01:48:01.563Z,0.00
2018-06-28T01:49:01.626Z,0.00
2018-06-28T01:50:01.668Z,0.00
2018-06-28T01:51:01.806Z,0.00
2018-06-28T01:52:01.751Z,0.00
2018-06-28T01:53:01.849Z,0.00
2018-06-28T01:54:01.825Z,0.00
2018-06-28T01:55:01.885Z,0.00
2018-06-28T01:56:01.917Z,0.00
2018-06-28T01:57:01.962Z,0.00
2018-06-28T01:58:02.017Z,0.00
2018-06-28T01:59:02.041Z,0.00
2018-06-28T02:00:02.093Z,0.00
2018-06-28T02:01:02.253Z,0.00
2018-06-28T02:02:02.181Z,0.00
2018-06-28T02:03:02.230Z,0.00
2018-06-28T02:04:02.263Z,0.00
2018-06-28T02:05:02.309Z,0.00
2018-06-28T02:06:02.556Z,0.00
2018-06-28T02:07:02.408Z,0.00
2018-06-28T02:08:02.462Z,0.00
2018-06-28T02:09:02.490Z,0.00
2018-06-28T02:10:02.533Z,0.00
2018-06-28T02:11:02.579Z,0.00
2018-06-28T02:12:02.727Z,0.00
2018-06-28T02:13:02.661Z,0.00
2018-06-28T02:14:02.719Z,0.00
2018-06-28T02:15:02.754Z,0.00
2018-06-28T02:16:02.820Z,0.00
2018-06-28T02:17:02.843Z,0.00
2018-06-28T02:18:02.889Z,0.00
2018-06-28T02:19:03.042Z,0.00
2018-06-28T02:20:02.992Z,0.00
2018-06-28T02:21:03.020Z,0.00
2018-06-28T02:22:03.070Z,0.00
2018-06-28T02:23:03.105Z,0.00
2018-06-28T02:24:03.367Z,0.00
2018-06-28T02:25:03.212Z,0.00
2018-06-28T02:26:03.243Z,0.00
2018-06-28T02:27:03.301Z,0.00
2018-06-28T02:28:03.330Z,0.00
2018-06-28T02:29:03.394Z,0.00
2018-06-28T02:30:03.417Z,0.00
2018-06-28T02:31:03.475Z,0.00
2018-06-28T02:32:03.518Z,0.00
2018-06-28T02:33:03.557Z,0.00
2018-06-28T02:34:03.713Z,0.00
2018-06-28T02:35:03.655Z,0.00
2018-06-28T02:36:03.683Z,0.00
2018-06-28T02:37:03.741Z,0.00
2018-06-28T02:38:03.782Z,0.00
2018-06-28T02:39:03.825Z,0.00
2018-06-28T02:40:03.863Z,0.00
2018-06-28T02:41:03.907Z,0.00
2018-06-28T02:42:03.945Z,0.00
2018-06-28T02:43:04.010Z,0.00
2018-06-28T02:44:04.144Z,0.00
2018-06-28T02:45:04.098Z,0.00
2018-06-28T02:46:04.152Z,0.00
2018-06-28T02:47:04.170Z,0.00
2018-06-28T02:48:04.228Z,0.00
2018-06-28T02:49:04.260Z,0.00
2018-06-28T02:50:04.425Z,0.00
2018-06-28T02:51:04.374Z,0.00
2018-06-28T02:52:04.400Z,0.00
2018-06-28T02:53:04.445Z,0.00
2018-06-28T02:54:04.496Z,0.00
2018-06-28T02:55:04.541Z,0.00
2018-06-28T02:56:04.683Z,0.00
2018-06-28T02:57:04.610Z,0.00
2018-06-28T02:58:04.655Z,0.00
2018-06-28T02:59:04.702Z,0.00
2018-06-28T03:00:04.748Z,0.00
2018-06-28T03:01:04.910Z,0.00
2018-06-28T03:02:04.849Z,0.00
2018-06-28T03:03:04.896Z,0.00
2018-06-28T03:04:04.956Z,0.00
2018-06-28T03:05:04.968Z,0.00
2018-06-28T03:06:05.022Z,0.00
2018-06-28T03:07:05.261Z,0.00
2018-06-28T03:08:05.113Z,0.00
2018-06-28T03:09:05.150Z,0.00
2018-06-28T03:10:05.196Z,0.00
2018-06-28T03:11:05.229Z,0.00
2018-06-28T03:12:05.293Z,0.00
2018-06-28T03:13:05.329Z,0.00
2018-06-28T03:14:05.382Z,0.00
2018-06-28T03:15:05.425Z,0.00
2018-06-28T03:16:05.470Z,0.00
2018-06-28T03:17:05.599Z,0.00
2018-06-28T03:18:05.538Z,0.00
2018-06-28T03:19:05.602Z,0.00
2018-06-28T03:20:05.650Z,0.00
2018-06-28T03:21:05.673Z,0.00
2018-06-28T03:22:05.735Z,0.00
2018-06-28T03:23:05.762Z,0.00
2018-06-28T03:24:05.817Z,0.00
2018-06-28T03:25:05.869Z,0.00
2018-06-28T03:26:05.917Z,0.00
2018-06-28T03:27:06.093Z,0.00
2018-06-28T03:28:05.984Z,0.00
2018-06-28T03:29:06.037Z,0.00
2018-06-28T03:30:06.070Z,0.00
2018-06-28T03:31:06.147Z,0.00
2018-06-28T03:32:06.183Z,0.00
2018-06-28T03:33:06.415Z,0.00
2018-06-28T03:34:06.255Z,0.00
2018-06-28T03:35:06.294Z,0.00
2018-06-28T03:36:06.357Z,0.00
2018-06-28T03:37:06.382Z,0.00
2018-06-28T03:38:06.487Z,0.00
2018-06-28T03:39:06.476Z,0.00
2018-06-28T03:40:06.524Z,0.00
2018-06-28T03:41:06.566Z,0.00
2018-06-28T03:42:06.618Z,0.00
2018-06-28T03:43:06.740Z,0.00
2018-06-28T03:44:06.687Z,0.00
2018-06-28T03:45:06.743Z,0.00
2018-06-28T03:46:06.786Z,0.00
2018-06-28T03:47:06.831Z,0.00
2018-06-28T03:48:06.882Z,0.00
2018-06-28T03:49:06.908Z,0.00
2018-06-28T03:50:06.957Z,0.00
2018-06-28T03:51:06.993Z,0.00
2018-06-28T03:52:07.056Z,0.00
2018-06-28T03:53:07.344Z,0.00
2018-06-28T03:54:07.246Z,0.00
2018-06-28T03:55:07.186Z,0.00
2018-06-28T03:56:07.234Z,0.00
2018-06-28T03:57:07.274Z,0.00
2018-06-28T03:58:07.328Z,0.00
2018-06-28T03:59:07.369Z,0.00
2018-06-28T04:00:07.598Z,0.00
2018-06-28T04:01:07.460Z,0.00
2018-06-28T04:02:07.482Z,0.00
2018-06-28T04:03:07.544Z,0.00
2018-06-28T04:04:07.590Z,0.00
2018-06-28T04:05:07.716Z,0.00
2018-06-28T04:06:07.657Z,0.00
2018-06-28T04:07:07.709Z,0.00
2018-06-28T04:08:07.745Z,0.00
2018-06-28T04:09:07.797Z,0.00
2018-06-28T04:10:07.831Z,0.00
2018-06-28T04:11:08.077Z,0.00
2018-06-28T04:12:07.924Z,0.00
2018-06-28T04:13:07.984Z,0.00
2018-06-28T04:14:08.010Z,0.00
2018-06-28T04:15:08.070Z,0.00
2018-06-28T04:16:08.208Z,0.00
2018-06-28T04:17:08.153Z,0.00
2018-06-28T04:18:08.198Z,0.00
2018-06-28T04:19:08.228Z,0.00
2018-06-28T04:20:08.291Z,0.00
2018-06-28T04:21:08.335Z,0.00
2018-06-28T04:22:08.559Z,0.00
2018-06-28T04:23:08.417Z,0.00
2018-06-28T04:24:08.449Z,0.00
2018-06-28T04:25:08.504Z,0.00
2018-06-28T04:26:08.544Z,0.00
2018-06-28T04:27:08.588Z,0.00
2018-06-28T04:28:08.738Z,0.00
2018-06-28T04:29:08.680Z,0.00
2018-06-28T04:30:08.727Z,0.00
2018-06-28T04:31:08.769Z,0.00
2018-06-28T04:32:08.793Z,0.00
2018-06-28T04:33:08.887Z,0.00
2018-06-28T04:34:08.883Z,0.00
2018-06-28T04:35:08.926Z,0.00
2018-06-28T04:36:08.969Z,0.00
2018-06-28T04:37:09.018Z,0.00
2018-06-28T04:38:09.153Z,0.00
2018-06-28T04:39:09.118Z,0.00
2018-06-28T04:40:09.159Z,0.00
2018-06-28T04:41:09.209Z,0.00
2018-06-28T04:42:09.249Z,0.00
2018-06-28T04:43:09.294Z,0.00
2018-06-28T04:44:09.334Z,0.00
2018-06-28T04:45:09.576Z,0.00
2018-06-28T04:46:09.408Z,0.00
2018-06-28T04:47:09.454Z,0.00
2018-06-28T04:48:09.512Z,0.00
2018-06-28T04:49:09.555Z,0.00
2018-06-28T04:50:09.696Z,0.00
2018-06-28T04:51:09.620Z,0.00
2018-06-28T04:52:09.667Z,0.00
2018-06-28T04:53:09.708Z,0.00
2018-06-28T04:54:09.757Z,0.00
2018-06-28T04:55:09.800Z,0.00
2018-06-28T04:56:10.055Z,0.00
2018-06-28T04:57:09.878Z,0.00
2018-06-28T04:58:09.943Z,0.00
2018-06-28T04:59:09.987Z,0.00
2018-06-28T05:00:10.022Z,0.00
2018-06-28T05:01:10.214Z,0.00
2018-06-28T05:02:10.111Z,0.00
2018-06-28T05:03:10.157Z,0.00
2018-06-28T05:04:10.195Z,0.00
2018-06-28T05:05:10.232Z,0.00
2018-06-28T05:06:10.277Z,0.00
2018-06-28T05:07:10.324Z,0.00
2018-06-28T05:08:10.384Z,0.00
2018-06-28T05:09:10.418Z,0.00
2018-06-28T05:10:10.451Z,0.00
2018-06-28T05:11:10.493Z,0.00
2018-06-28T05:12:10.688Z,0.00
2018-06-28T05:13:10.588Z,0.00
2018-06-28T05:14:10.622Z,0.00
2018-06-28T05:15:10.690Z,0.00
2018-06-28T05:16:10.730Z,0.00
2018-06-28T05:17:10.781Z,0.00
2018-06-28T05:18:10.814Z,0.00
2018-06-28T05:19:10.845Z,0.00
2018-06-28T05:20:10.905Z,0.00
2018-06-28T05:21:12.130Z,0.00
2018-06-28T05:22:11.171Z,0.00
2018-06-28T05:23:11.034Z,0.00
2018-06-28T05:24:11.058Z,0.00
2018-06-28T05:25:11.121Z,0.00
2018-06-28T05:26:11.148Z,0.00
2018-06-28T05:27:11.299Z,0.00
2018-06-28T05:28:11.240Z,0.00
2018-06-28T05:29:11.339Z,0.00
2018-06-28T05:30:11.320Z,0.00
2018-06-28T05:31:11.382Z,0.00
2018-06-28T05:32:11.419Z,0.00
2018-06-28T05:33:11.470Z,0.00
2018-06-28T05:34:11.508Z,0.00
2018-06-28T05:35:11.541Z,0.00
2018-06-28T05:36:11.590Z,0.00
2018-06-28T05:37:11.837Z,0.00
2018-06-28T05:38:11.664Z,0.00
2018-06-28T05:39:11.729Z,0.00
2018-06-28T05:40:11.769Z,0.00
2018-06-28T05:41:11.799Z,0.00
2018-06-28T05:42:11.942Z,0.00
2018-06-28T05:43:11.883Z,0.00
2018-06-28T05:44:11.923Z,0.00
2018-06-28T05:45:11.982Z,0.00
2018-06-28T05:46:12.031Z,0.00
2018-06-28T05:47:12.119Z,0.00
2018-06-28T05:48:12.113Z,0.00
2018-06-28T05:49:12.145Z,0.00
2018-06-28T05:50:12.189Z,0.00
2018-06-28T05:51:12.239Z,0.00
2018-06-28T05:52:12.470Z,0.00
2018-06-28T05:53:12.430Z,0.00
2018-06-28T05:54:12.451Z,0.00
2018-06-28T05:55:12.547Z,0.00
2018-06-28T05:56:12.441Z,0.00
2018-06-28T05:57:12.486Z,0.00
2018-06-28T05:58:12.531Z,0.00
2018-06-28T05:59:12.790Z,0.00
2018-06-28T06:00:12.633Z,0.00
2018-06-28T06:01:12.661Z,0.00
2018-06-28T06:02:12.715Z,0.00
2018-06-28T06:03:12.759Z,0.00
2018-06-28T06:04:12.911Z,0.00
2018-06-28T06:05:12.841Z,0.00
2018-06-28T06:06:12.871Z,0.00
2018-06-28T06:07:12.914Z,0.00
2018-06-28T06:08:12.976Z,0.00
2018-06-28T06:09:13.017Z,0.00
2018-06-28T06:10:13.296Z,0.00
2018-06-28T06:11:13.098Z,0.00
2018-06-28T06:12:13.145Z,0.00
2018-06-28T06:13:13.177Z,0.00
2018-06-28T06:14:13.267Z,0.00
2018-06-28T06:15:13.271Z,0.00
2018-06-28T06:16:13.488Z,0.00
2018-06-28T06:17:13.366Z,0.00
2018-06-28T06:18:13.386Z,0.00
2018-06-28T06:19:13.446Z,0.00
2018-06-28T06:20:13.537Z,0.00
2018-06-28T06:21:13.539Z,0.00
2018-06-28T06:22:13.566Z,0.00
2018-06-28T06:23:13.605Z,0.00
2018-06-28T06:24:13.646Z,0.00
2018-06-28T06:25:13.727Z,0.00
2018-06-28T06:26:14.001Z,0.00
2018-06-28T06:27:13.889Z,0.00
2018-06-28T06:28:13.824Z,0.00
2018-06-28T06:29:13.877Z,0.00
2018-06-28T06:30:13.914Z,0.00
2018-06-28T06:31:13.952Z,0.00
2018-06-28T06:32:13.996Z,0.00
2018-06-28T06:33:14.233Z,0.00
2018-06-28T06:34:14.075Z,0.00
2018-06-28T06:35:14.132Z,0.00
2018-06-28T06:36:14.177Z,0.00
2018-06-28T06:37:14.207Z,0.00
2018-06-28T06:38:14.366Z,0.00
2018-06-28T06:39:14.296Z,0.00
2018-06-28T06:40:14.333Z,0.00
2018-06-28T06:41:14.374Z,0.00
2018-06-28T06:42:14.420Z,0.00
2018-06-28T06:43:14.479Z,0.00
2018-06-28T06:44:14.771Z,0.00
2018-06-28T06:45:14.549Z,0.00
2018-06-28T06:46:14.589Z,0.00
2018-06-28T06:47:14.642Z,0.00
2018-06-28T06:48:14.672Z,0.00
2018-06-28T06:49:14.834Z,0.00
2018-06-28T06:50:14.758Z,0.00
2018-06-28T06:51:14.803Z,0.00
2018-06-28T06:52:14.848Z,0.00
2018-06-28T06:53:14.887Z,0.00
2018-06-28T06:54:14.945Z,0.00
2018-06-28T06:55:15.166Z,0.00
2018-06-28T06:56:15.073Z,0.00
2018-06-28T06:57:15.058Z,0.00
2018-06-28T06:58:15.116Z,0.00
2018-06-28T06:59:15.155Z,0.00
2018-06-28T07:00:15.192Z,0.00
2018-06-28T07:01:15.332Z,0.00
2018-06-28T07:02:15.265Z,0.00
2018-06-28T07:03:15.318Z,0.00
2018-06-28T07:04:15.363Z,0.00
2018-06-28T07:05:15.404Z,0.00
2018-06-28T07:06:15.435Z,0.00
2018-06-28T07:07:15.496Z,0.00
2018-06-28T07:08:15.523Z,0.00
2018-06-28T07:09:15.566Z,0.00
2018-06-28T07:10:15.630Z,0.00
2018-06-28T07:11:15.772Z,0.00
2018-06-28T07:12:15.809Z,0.00
2018-06-28T07:13:15.749Z,0.00
2018-06-28T07:14:15.795Z,0.00
2018-06-28T07:15:15.839Z,0.00
2018-06-28T07:16:15.872Z,0.00
2018-06-28T07:17:15.927Z,0.00
2018-06-28T07:18:16.049Z,0.00
2018-06-28T07:19:15.999Z,0.00
2018-06-28T07:20:16.035Z,0.00
2018-06-28T07:21:16.078Z,0.00
2018-06-28T07:22:16.117Z,0.00
2018-06-28T07:23:16.286Z,0.00
2018-06-28T07:24:16.215Z,0.00
2018-06-28T07:25:16.267Z,0.00
2018-06-28T07:26:16.304Z,0.00
2018-06-28T07:27:16.337Z,0.00
2018-06-28T07:28:16.377Z,0.00
2018-06-28T07:29:16.437Z,0.00
2018-06-28T07:30:16.460Z,0.00
2018-06-28T07:31:16.523Z,0.00
2018-06-28T07:32:16.563Z,0.00
2018-06-28T07:33:16.696Z,0.00
2018-06-28T07:34:16.643Z,0.00
2018-06-28T07:35:16.668Z,0.00
2018-06-28T07:36:16.727Z,0.00
2018-06-28T07:37:16.757Z,0.00
2018-06-28T07:38:16.796Z,0.00
2018-06-28T07:39:16.949Z,0.00
2018-06-28T07:40:17.002Z,0.00
2018-06-28T07:41:16.950Z,0.00
2018-06-28T07:42:16.981Z,0.00
2018-06-28T07:43:17.010Z,0.00
2018-06-28T07:44:17.054Z,0.00
2018-06-28T07:45:17.120Z,0.00
2018-06-28T07:46:17.248Z,0.00
2018-06-28T07:47:17.181Z,0.00
2018-06-28T07:48:17.240Z,0.00
2018-06-28T07:49:17.283Z,0.00
2018-06-28T07:50:17.330Z,0.00
2018-06-28T07:51:17.471Z,0.00
2018-06-28T07:52:17.397Z,0.00
2018-06-28T07:53:17.443Z,0.00
2018-06-28T07:54:17.480Z,0.00
2018-06-28T07:55:17.599Z,0.00
2018-06-28T07:56:17.570Z,0.00
2018-06-28T07:57:17.811Z,0.00
2018-06-28T07:58:17.756Z,0.00
2018-06-28T07:59:17.710Z,0.00
2018-06-28T08:00:17.758Z,0.00
2018-06-28T08:01:17.919Z,0.00
2018-06-28T08:02:17.822Z,0.00
2018-06-28T08:03:17.887Z,0.00
2018-06-28T08:04:17.908Z,0.00
2018-06-28T08:05:17.966Z,0.00
2018-06-28T08:06:18.009Z,0.00
2018-06-28T08:07:18.048Z,0.00
2018-06-28T08:08:18.276Z,0.00
2018-06-28T08:09:18.236Z,0.00
2018-06-28T08:10:18.160Z,0.00
2018-06-28T08:11:18.208Z,0.00
2018-06-28T08:12:18.248Z,0.00
2018-06-28T08:13:18.290Z,0.00
2018-06-28T08:14:18.532Z,0.00
2018-06-28T08:15:18.381Z,0.00
2018-06-28T08:16:18.418Z,0.00
2018-06-28T08:17:18.482Z,0.00
2018-06-28T08:18:18.507Z,0.00
2018-06-28T08:19:18.647Z,0.00
2018-06-28T08:20:18.586Z,0.00
2018-06-28T08:21:18.649Z,0.00
2018-06-28T08:22:18.673Z,0.00
2018-06-28T08:23:18.716Z,0.00
2018-06-28T08:24:18.776Z,0.00
2018-06-28T08:25:19.005Z,0.00
2018-06-28T08:26:18.863Z,0.00
2018-06-28T08:27:18.898Z,0.00
2018-06-28T08:28:18.972Z,0.00
2018-06-28T08:29:18.982Z,0.00
2018-06-28T08:30:19.111Z,0.00
2018-06-28T08:31:19.073Z,0.00
2018-06-28T08:32:19.111Z,0.00
2018-06-28T08:33:19.151Z,0.00
2018-06-28T08:34:19.191Z,0.00
2018-06-28T08:35:19.238Z,0.00
2018-06-28T08:36:19.464Z,0.00
2018-06-28T08:37:19.303Z,0.00
2018-06-28T08:38:19.347Z,0.00
2018-06-28T08:39:19.408Z,0.00
2018-06-28T08:40:19.431Z,0.00
2018-06-28T08:41:19.492Z,0.00
2018-06-28T08:42:19.534Z,0.00
2018-06-28T08:43:19.571Z,0.00
2018-06-28T08:44:19.603Z,0.00
2018-06-28T08:45:19.651Z,0.00
2018-06-28T08:46:19.795Z,0.00
2018-06-28T08:47:19.741Z,0.00
2018-06-28T08:48:19.787Z,0.00
2018-06-28T08:49:19.832Z,0.00
2018-06-28T08:50:19.857Z,0.00
2018-06-28T08:51:20.106Z,0.00
2018-06-28T08:52:19.950Z,0.00
2018-06-28T08:53:19.985Z,0.00
2018-06-28T08:54:20.028Z,0.00
2018-06-28T08:55:20.087Z,0.00
2018-06-28T08:56:20.121Z,0.00
2018-06-28T08:57:20.157Z,0.00
2018-06-28T08:58:20.263Z,0.00
2018-06-28T08:59:20.256Z,0.00
2018-06-28T09:00:20.298Z,0.00
2018-06-28T09:01:20.448Z,0.00
2018-06-28T09:02:20.587Z,0.00
2018-06-28T09:03:20.410Z,0.00
2018-06-28T09:04:20.459Z,0.00
2018-06-28T09:05:20.518Z,0.00
2018-06-28T09:06:20.558Z,0.00
2018-06-28T09:07:20.597Z,0.00
2018-06-28T09:08:20.727Z,0.00
2018-06-28T09:09:20.671Z,0.00
2018-06-28T09:10:20.730Z,0.00
2018-06-28T09:11:20.752Z,0.00
2018-06-28T09:12:20.799Z,0.00
2018-06-28T09:13:20.843Z,0.00
2018-06-28T09:14:20.983Z,0.00
2018-06-28T09:15:20.962Z,0.00
2018-06-28T09:16:20.981Z,0.00
2018-06-28T09:17:21.024Z,0.00
2018-06-28T09:18:21.076Z,0.00
2018-06-28T09:19:21.103Z,0.00
2018-06-28T09:20:21.156Z,0.00
2018-06-28T09:21:21.182Z,0.00
2018-06-28T09:22:21.225Z,0.00
2018-06-28T09:23:21.276Z,0.00
2018-06-28T09:24:21.514Z,0.00
2018-06-28T09:25:21.372Z,0.00
2018-06-28T09:26:21.395Z,0.00
2018-06-28T09:27:21.441Z,0.00
2018-06-28T09:28:21.503Z,0.00
2018-06-28T09:29:21.621Z,0.00
2018-06-28T09:30:21.570Z,0.00
2018-06-28T09:31:21.625Z,0.00
2018-06-28T09:32:21.658Z,0.00
2018-06-28T09:33:21.708Z,0.00
2018-06-28T09:34:21.756Z,0.00
2018-06-28T09:35:21.983Z,0.00
2018-06-28T09:36:21.818Z,0.00
2018-06-28T09:37:21.878Z,0.00
2018-06-28T09:38:21.909Z,0.00
2018-06-28T09:39:21.966Z,0.00
2018-06-28T09:40:22.010Z,0.00
2018-06-28T09:41:22.153Z,0.00
2018-06-28T09:42:22.091Z,0.00
2018-06-28T09:43:22.136Z,0.00
2018-06-28T09:44:22.166Z,0.00
2018-06-28T09:45:22.210Z,5.63
2018-06-28T09:46:22.268Z,5.63
2018-06-28T09:47:22.406Z,5.63
2018-06-28T09:48:22.344Z,5.63
2018-06-28T09:49:22.396Z,5.63
2018-06-28T09:50:22.445Z,5.63
2018-06-28T09:51:22.469Z,5.63
2018-06-28T09:52:22.520Z,11.25
2018-06-28T09:53:22.547Z,11.25
2018-06-28T09:54:22.613Z,11.25
2018-06-28T09:55:22.651Z,11.25
2018-06-28T09:56:22.690Z,16.88
2018-06-28T09:57:22.823Z,16.88
2018-06-28T09:58:22.762Z,22.50
2018-06-28T09:59:22.819Z,22.50
2018-06-28T10:00:22.908Z,28.13
2018-06-28T10:01:22.910Z,28.13
2018-06-28T10:02:22.951Z,28.13
2018-06-28T10:03:22.977Z,33.75
2018-06-28T10:04:23.023Z,33.75
2018-06-28T10:05:23.063Z,39.38
2018-06-28T10:06:23.122Z,39.38
2018-06-28T10:07:23.147Z,39.38
2018-06-28T10:08:23.315Z,39.38
2018-06-28T10:09:23.248Z,45.00
2018-06-28T10:10:23.295Z,45.00
2018-06-28T10:11:23.340Z,45.00
2018-06-28T10:12:23.365Z,50.63
2018-06-28T10:13:23.411Z,50.63
2018-06-28T10:14:23.711Z,50.63
2018-06-28T10:15:23.493Z,50.63
2018-06-28T10:16:23.555Z,56.25
2018-06-28T10:17:23.578Z,56.25
2018-06-28T10:18:23.636Z,56.25
2018-06-28T10:19:23.772Z,61.88
2018-06-28T10:20:23.729Z,73.13
2018-06-28T10:21:23.772Z,78.75
2018-06-28T10:22:23.798Z,84.38
2018-06-28T10:23:23.849Z,90.00
2018-06-28T10:24:23.878Z,95.63
2018-06-28T10:25:23.938Z,101.25
2018-06-28T10:26:24.178Z,101.25
2018-06-28T10:27:24.026Z,101.25
2018-06-28T10:28:24.064Z,106.88
2018-06-28T10:29:24.096Z,112.50
2018-06-28T10:30:24.140Z,112.50
2018-06-28T10:31:24.307Z,112.50
2018-06-28T10:32:24.238Z,106.88
2018-06-28T10:33:24.294Z,106.88
2018-06-28T10:34:24.341Z,112.50
2018-06-28T10:35:24.381Z,118.13
2018-06-28T10:36:24.402Z,123.75
2018-06-28T10:37:24.460Z,123.75
2018-06-28T10:38:24.507Z,123.75
2018-06-28T10:39:24.540Z,123.75
2018-06-28T10:40:24.593Z,123.75
2018-06-28T10:41:24.632Z,118.13
2018-06-28T10:42:24.885Z,123.75
2018-06-28T10:43:24.728Z,101.25
2018-06-28T10:44:24.761Z,129.38
2018-06-28T10:45:24.845Z,95.63
2018-06-28T10:46:24.864Z,90.00
2018-06-28T10:47:24.895Z,90.00
2018-06-28T10:48:24.928Z,90.00
2018-06-28T10:49:24.992Z,95.63
2018-06-28T10:50:25.105Z,101.25
2018-06-28T10:51:25.080Z,106.88
2018-06-28T10:52:25.226Z,118.13
2018-06-28T10:53:25.171Z,129.38
2018-06-28T10:54:25.194Z,135.00
2018-06-28T10:55:25.260Z,135.00
2018-06-28T10:56:25.334Z,135.00
2018-06-28T10:57:25.326Z,140.63
2018-06-28T10:58:25.380Z,146.25
2018-06-28T10:59:25.521Z,157.50
2018-06-28T11:00:25.475Z,168.75
2018-06-28T11:01:25.510Z,180.00
2018-06-28T11:02:25.549Z,191.25
2018-06-28T11:03:25.604Z,196.88
2018-06-28T11:04:25.647Z,180.00
2018-06-28T11:05:25.849Z,185.63
2018-06-28T11:06:25.729Z,241.88
2018-06-28T11:07:25.825Z,264.38
2018-06-28T11:08:25.910Z,343.13
2018-06-28T11:09:25.859Z,247.50
2018-06-28T11:10:25.914Z,225.00
2018-06-28T11:11:26.158Z,225.00
2018-06-28T11:12:25.996Z,225.00
2018-06-28T11:13:26.044Z,225.00
2018-06-28T11:14:26.095Z,225.00
2018-06-28T11:15:26.143Z,241.88
2018-06-28T11:16:26.270Z,264.38
2018-06-28T11:17:26.219Z,298.13
2018-06-28T11:18:26.279Z,438.75
2018-06-28T11:19:26.376Z,337.50
2018-06-28T11:20:26.369Z,331.88
2018-06-28T11:21:26.397Z,320.63
2018-06-28T11:22:26.456Z,286.88
2018-06-28T11:23:26.485Z,264.38
2018-06-28T11:24:26.530Z,264.38
2018-06-28T11:25:26.574Z,309.38
2018-06-28T11:26:26.622Z,444.38
2018-06-28T11:27:26.890Z,405.00
2018-06-28T11:28:26.710Z,455.63
2018-06-28T11:29:26.763Z,624.38
2018-06-28T11:30:26.820Z,691.88
2018-06-28T11:31:26.846Z,765.00
2018-06-28T11:32:26.904Z,787.50
2018-06-28T11:33:27.042Z,787.50
2018-06-28T11:34:27.001Z,748.13
2018-06-28T11:35:27.033Z,770.63
2018-06-28T11:36:27.093Z,646.88
2018-06-28T11:37:27.135Z,731.25
2018-06-28T11:38:27.172Z,776.25
2018-06-28T11:39:27.221Z,753.75
2018-06-28T11:40:27.284Z,990.00
2018-06-28T11:41:27.326Z,911.25
2018-06-28T11:42:27.356Z,568.13
2018-06-28T11:43:27.429Z,770.63
2018-06-28T11:44:27.480Z,562.50
2018-06-28T11:45:27.514Z,1068.75
2018-06-28T11:46:27.567Z,877.50
2018-06-28T11:47:27.601Z,590.63
2018-06-28T11:48:27.659Z,978.75
2018-06-28T11:49:27.698Z,585.00
2018-06-28T11:50:27.754Z,523.13
2018-06-28T11:51:27.813Z,590.63
2018-06-28T11:52:27.851Z,1125.00
2018-06-28T11:53:27.995Z,1411.88
2018-06-28T11:54:27.961Z,1057.50
2018-06-28T11:55:27.989Z,1355.63
2018-06-28T11:56:28.039Z,1372.50
2018-06-28T11:57:28.085Z,1209.38
2018-06-28T11:58:28.144Z,1164.38
2018-06-28T11:59:28.181Z,1141.88
2018-06-28T12:00:28.345Z,1035.00
2018-06-28T12:01:28.285Z,1080.00
2018-06-28T12:02:28.336Z,838.13
2018-06-28T12:03:28.399Z,720.00
2018-06-28T12:04:28.442Z,495.00
2018-06-28T12:05:28.524Z,360.00
2018-06-28T12:06:28.644Z,348.75
2018-06-28T12:07:28.600Z,360.00
2018-06-28T12:08:28.642Z,376.88
2018-06-28T12:09:28.695Z,382.50
2018-06-28T12:10:28.741Z,421.88
2018-06-28T12:11:28.801Z,433.13
2018-06-28T12:12:28.950Z,438.75
2018-06-28T12:13:28.889Z,489.38
2018-06-28T12:14:28.948Z,528.75
2018-06-28T12:15:29.034Z,511.88
2018-06-28T12:16:29.041Z,466.88
2018-06-28T12:17:29.092Z,478.13
2018-06-28T12:18:29.154Z,466.88
2018-06-28T12:19:29.184Z,517.50
2018-06-28T12:20:29.236Z,624.38
2018-06-28T12:21:29.289Z,781.88
2018-06-28T12:22:29.566Z,1001.25
2018-06-28T12:23:29.399Z,748.13
2018-06-28T12:24:29.444Z,815.63
2018-06-28T12:25:29.490Z,995.63
2018-06-28T12:26:29.532Z,1029.38
2018-06-28T12:27:29.586Z,984.38
2018-06-28T12:28:29.726Z,810.00
2018-06-28T12:29:29.687Z,601.88
2018-06-28T12:30:29.738Z,630.00
2018-06-28T12:31:29.798Z,618.75
2018-06-28T12:32:29.839Z,596.25
2018-06-28T12:33:29.881Z,624.38
2018-06-28T12:34:30.037Z,534.38
2018-06-28T12:35:29.981Z,478.13
2018-06-28T12:36:30.037Z,478.13
2018-06-28T12:37:30.091Z,483.75
2018-06-28T12:38:30.121Z,483.75
2018-06-28T12:39:30.174Z,506.25
2018-06-28T12:40:30.320Z,551.25
2018-06-28T12:41:30.266Z,556.88
2018-06-28T12:42:30.318Z,534.38
2018-06-28T12:43:30.364Z,540.00
2018-06-28T12:44:30.427Z,562.50
2018-06-28T12:45:30.469Z,613.13
2018-06-28T12:46:30.532Z,748.13
2018-06-28T12:47:30.570Z,731.25
2018-06-28T12:48:30.624Z,686.25
2018-06-28T12:49:30.658Z,748.13
2018-06-28T12:50:30.804Z,843.75
2018-06-28T12:51:30.772Z,781.88
2018-06-28T12:52:30.807Z,585.00
2018-06-28T12:53:30.867Z,551.25
2018-06-28T12:54:30.905Z,545.63
2018-06-28T12:55:30.973Z,500.63
2018-06-28T12:56:31.210Z,523.13
2018-06-28T12:57:31.064Z,523.13
2018-06-28T12:58:31.097Z,556.88
2018-06-28T12:59:31.164Z,618.75
2018-06-28T13:00:31.214Z,680.63
2018-06-28T13:01:31.245Z,691.88
2018-06-28T13:02:31.508Z,933.75
2018-06-28T13:03:31.339Z,781.88
2018-06-28T13:04:31.408Z,618.75
2018-06-28T13:05:31.446Z,534.38
2018-06-28T13:06:31.497Z,511.88
2018-06-28T13:07:31.523Z,511.88